NCAR-RAP Real-Time Weather Data

Output produced by METARs form (12 August 2020  18:45 UTC)
found at http://weather.rap.ucar.edu/surface/
 
KBTR 121753Z 00000KT 10SM BKN042 33/23 A3001 RMK AO2 SLP161 T03330233 10344 20261 58005
KBTR 121653Z 32005KT 10SM SCT035 BKN046 32/24 A3002 RMK AO2 SLP164 T03170239
KBTR 121553Z 32004KT 10SM BKN031 BKN036 32/24 A3003 RMK AO2 SLP168 T03170239
KBTR 121453Z VRB06KT 10SM SCT019 BKN030 31/25 A3003 RMK AO2 SLP166 T03110250 51016
KBTR 121417Z VRB04KT 10SM SCT028 30/25 A3002 RMK AO2 T03000250
KBTR 121353Z VRB03KT 10SM BKN025 29/25 A3002 RMK AO2 SLP163 T02940250
KBTR 121334Z 36003KT 10SM BKN025 28/25 A3001 RMK AO2 T02830250
KBTR 121253Z 29004KT 10SM FEW024 27/24 A3001 RMK AO2 SLP159 T02720244
KBTR 121153Z 24005KT 10SM CLR 26/24 A2998 RMK AO2 SLP150 T02610244 10278 20256 55002
KBTR 121053Z AUTO 27004KT 10SM CLR 26/24 A2998 RMK AO2 SLP149 T02560239 TSNO
KBTR 120953Z AUTO 25004KT 10SM CLR 26/24 A2997 RMK AO2 SLP147 T02610239 TSNO
KBTR 120853Z AUTO 26005KT 10SM CLR 26/24 A2998 RMK AO2 SLP151 T02610239 58005
KBTR 120753Z AUTO 17004KT 10SM CLR 27/24 A2999 RMK AO2 SLP153 T02720244
KBTR 120653Z AUTO 24005KT 10SM CLR 27/24 A3000 RMK AO2 SLP155 T02670239
KBTR 120553Z AUTO 19004KT 10SM CLR 28/23 A3000 RMK AO2 SLP157 T02780233 10328 20278 403500244 51002
KBTR 120453Z AUTO 23005KT 10SM CLR 29/23 A3000 RMK AO2 SLP156 T02890233
KBTR 120353Z AUTO 22006KT 10SM CLR 29/24 A3001 RMK AO2 SLP159 T02940239
KBTR 120253Z AUTO 22006KT 10SM CLR 29/24 A2999 RMK AO2 SLP155 T02940239 52019
KBTR 120153Z AUTO 24006KT 10SM CLR 30/24 A2998 RMK AO2 SLP150 T03000239
KBTR 120053Z 24008KT 10SM CLR 31/22 A2995 RMK AO2 SLP141 T03110222
KBTR 112353Z 26005KT 10SM CLR 33/21 A2994 RMK AO2 SLP135 T03280211 10350 20328 55007
KBTR 112253Z 27008KT 10SM CLR 34/21 A2993 RMK AO2 SLP134 T03390211
KBTR 112153Z 27007KT 10SM CLR 34/21 A2993 RMK AO2 SLP134 T03440211
KBTR 112053Z 24006KT 10SM CLR 34/21 A2996 RMK AO2 SLP142 T03440211 58025
KBTR 111953Z 24005KT 10SM CLR 34/22 A2998 RMK AO2 SLP150 T03440217
KBTR 111853Z VRB04KT 10SM CLR 34/22 A3001 RMK AO2 SLP160 T03390222
KBTR 111753Z 23006KT 10SM CLR 33/23 A3003 RMK AO2 SLP168 T03330228 10339 20244 58008
KBTR 111653Z 19005KT 10SM CLR 33/23 A3005 RMK AO2 SLP174 T03280228
KBTR 111553Z 30005KT 10SM CLR 32/23 A3006 RMK AO2 SLP176 T03170233
KBTR 111453Z 24006KT 10SM CLR 31/24 A3006 RMK AO2 SLP176 T03060244 51005
KBTR 111353Z 27006KT 10SM CLR 29/24 A3006 RMK AO2 SLP176 T02890239
KBTR 111253Z 27003KT 10SM CLR 27/24 A3005 RMK AO2 SLP173 T02720239
KBTR 111153Z 00000KT 9SM CLR 24/23 A3004 RMK AO2 SLP171 T02440233 10272 20244 53008
KBTR 111053Z AUTO 00000KT 10SM CLR 26/23 A3003 RMK AO2 SLP167 T02560233
KBTR 110953Z AUTO 28003KT 10SM CLR 26/23 A3002 RMK AO2 SLP163 T02560233
KBTR 110853Z AUTO 00000KT 10SM CLR 26/23 A3002 RMK AO2 SLP162 T02560233 56005
KBTR 110753Z AUTO 25003KT 10SM CLR 26/23 A3002 RMK AO2 SLP164 T02610233
KBTR 110653Z AUTO 10SM CLR 27/23 A3002 RMK AO2 SLP164 T02670233
KBTR 110553Z AUTO 10SM CLR 27/23 A3003 RMK AO2 SLP168 T02720233 10322 20272 403500239 51007
KBTR 110453Z AUTO 23006KT 10SM CLR 28/23 A3003 RMK AO2 SLP166 T02780233
KBTR 110353Z AUTO 23008KT 10SM CLR 28/23 A3002 RMK AO2 SLP163 T02830233
KBTR 110253Z AUTO 24006KT 10SM CLR 29/23 A3001 RMK AO2 SLP161 T02890233 53008
KBTR 110153Z AUTO 24008KT 10SM CLR 30/22 A2999 RMK AO2 SLP155 T03000222
KBTR 110053Z 24004KT 10SM CLR 30/22 A2999 RMK AO2 SLP154 T03000217
KBTR 102353Z 25006KT 10SM CLR 33/21 A2999 RMK AO2 SLP153 T03280206 10350 20322 56017
KBTR 102253Z 26005KT 10SM CLR 34/21 A3000 RMK AO2 SLP156 T03390211
KBTR 102153Z 26006KT 10SM CLR 34/22 A3001 RMK AO2 SLP162 T03390217
KBTR 102053Z AUTO 27010KT 10SM SCT055 34/22 A3004 RMK AO2 SLP170 T03440217 58022
KBTR 101953Z AUTO 24004KT 10SM SCT046 34/21 A3006 RMK AO2 SLP178 T03390206
KBTR 101853Z VRB04KT 10SM CLR 34/21 A3009 RMK AO2 SLP187 T03440211